createdAt,value
2022-10-25T00:00:19.795Z,93.59
2022-10-25T00:02:47.375Z,93.29
2022-10-25T00:05:15.340Z,93.77
2022-10-25T00:07:43.155Z,93.76
2022-10-25T00:10:10.898Z,93.36
2022-10-25T00:12:42.628Z,93.11
2022-10-25T00:15:14.070Z,92.72
2022-10-25T00:17:41.954Z,92.88
2022-10-25T00:20:10.782Z,92.48
2022-10-25T00:22:38.590Z,92.32
2022-10-25T00:25:07.120Z,92.39
2022-10-25T00:27:34.880Z,91.65
2022-10-25T00:30:02.982Z,91.90
2022-10-25T00:32:31.797Z,91.52
2022-10-25T00:34:59.274Z,91.64
2022-10-25T00:37:27.100Z,92.10
2022-10-25T00:39:54.547Z,92.02
2022-10-25T00:42:24.372Z,91.95
2022-10-25T00:44:56.936Z,92.43
2022-10-25T00:47:47.846Z,92.57
2022-10-25T00:50:23.217Z,92.61
2022-10-25T00:52:54.648Z,92.96
2022-10-25T00:55:23.201Z,92.92
2022-10-25T00:57:54.252Z,92.85
2022-10-25T01:00:21.985Z,92.51
2022-10-25T01:02:50.886Z,92.83
2022-10-25T01:05:18.966Z,93.64
2022-10-25T01:07:47.752Z,93.53
2022-10-25T01:10:16.318Z,93.39
2022-10-25T01:12:46.427Z,93.27
2022-10-25T01:15:17.039Z,93.56
2022-10-25T01:17:53.155Z,93.04
2022-10-25T01:20:52.229Z,92.87
2022-10-25T01:23:41.454Z,93.07
2022-10-25T01:26:38.087Z,92.78
2022-10-25T01:29:26.845Z,92.92
2022-10-25T01:31:57.957Z,93.10
2022-10-25T01:34:28.103Z,93.86
2022-10-25T01:37:00.595Z,94.67
2022-10-25T01:39:31.785Z,94.48
2022-10-25T01:42:03.147Z,94.13
2022-10-25T01:44:38.202Z,94.85
2022-10-25T01:47:10.552Z,94.84
2022-10-25T01:49:43.135Z,94.93
2022-10-25T01:52:10.627Z,94.37
2022-10-25T01:54:38.331Z,94.53
2022-10-25T01:57:21.786Z,94.18
2022-10-25T02:00:00.934Z,94.26
2022-10-25T02:02:33.516Z,94.58
2022-10-25T02:05:05.849Z,94.72
2022-10-25T02:07:37.693Z,94.55
2022-10-25T02:10:09.069Z,94.99
2022-10-25T02:12:45.003Z,94.38
2022-10-25T02:15:17.103Z,94.69
2022-10-25T02:17:50.262Z,94.96
2022-10-25T02:20:19.148Z,94.93
2022-10-25T02:22:47.529Z,95.09
2022-10-25T02:25:16.002Z,95.17
2022-10-25T02:27:44.339Z,94.93
2022-10-25T02:30:12.886Z,94.72
2022-10-25T02:32:40.530Z,94.87
2022-10-25T02:37:46.099Z,94.44
2022-10-25T02:40:14.152Z,94.32
2022-10-25T02:42:41.729Z,94.38
2022-10-25T02:45:10.213Z,94.51
2022-10-25T02:47:37.761Z,94.59
2022-10-25T02:50:06.521Z,94.34
2022-10-25T02:52:35.372Z,94.63
2022-10-25T02:55:02.862Z,93.99
2022-10-25T02:57:33.813Z,94.07
2022-10-25T03:00:01.436Z,94.29
2022-10-25T03:02:29.009Z,94.69
2022-10-25T03:04:56.505Z,94.29
2022-10-25T03:07:23.985Z,94.58
2022-10-25T03:09:52.826Z,94.23
2022-10-25T03:12:20.281Z,94.70
2022-10-25T03:14:47.766Z,94.86
2022-10-25T03:17:15.250Z,94.82
2022-10-25T03:19:42.713Z,94.82
2022-10-25T03:22:10.213Z,95.25
2022-10-25T03:24:37.670Z,95.39
2022-10-25T03:27:06.483Z,96.51
2022-10-25T03:29:33.940Z,95.80
2022-10-25T03:32:01.453Z,95.47
2022-10-25T03:34:29.132Z,95.68
2022-10-25T03:36:57.671Z,95.50
2022-10-25T03:39:25.142Z,95.36
2022-10-25T03:41:52.600Z,95.59
2022-10-25T03:44:21.601Z,95.91
2022-10-25T03:46:49.058Z,95.85
2022-10-25T03:49:16.555Z,96.12
2022-10-25T03:51:44.045Z,95.79
2022-10-25T03:54:11.511Z,96.32
2022-10-25T03:56:38.957Z,95.74
2022-10-25T03:59:06.437Z,96.03
2022-10-25T04:01:35.275Z,95.96
2022-10-25T04:04:02.849Z,96.08
2022-10-25T04:06:30.747Z,96.34
2022-10-25T04:08:58.555Z,96.46
2022-10-25T04:11:26.018Z,96.36
2022-10-25T04:13:53.473Z,96.65
2022-10-25T04:16:20.961Z,96.99
2022-10-25T04:18:51.295Z,96.33
2022-10-25T04:21:18.751Z,96.63
2022-10-25T04:23:46.348Z,96.76
2022-10-25T04:26:14.489Z,97.20
2022-10-25T04:28:41.962Z,96.89
2022-10-25T04:31:09.452Z,96.39
2022-10-25T04:33:36.929Z,96.33
2022-10-25T04:36:06.549Z,96.07
2022-10-25T04:38:34.095Z,95.30
2022-10-25T04:41:01.993Z,95.48
2022-10-25T04:43:30.087Z,94.78
2022-10-25T04:46:00.608Z,94.82
2022-10-25T04:48:28.309Z,95.13
2022-10-25T04:50:55.799Z,94.70
2022-10-25T04:53:24.589Z,94.27
2022-10-25T04:55:57.258Z,93.90
2022-10-25T04:58:28.758Z,93.55
2022-10-25T05:01:01.247Z,93.86
2022-10-25T05:03:29.089Z,93.38
2022-10-25T05:05:56.568Z,94.01
2022-10-25T05:08:25.384Z,93.82
2022-10-25T05:10:54.840Z,94.36
2022-10-25T05:13:22.381Z,95.27
2022-10-25T05:15:55.659Z,95.39
2022-10-25T05:18:23.179Z,94.81
2022-10-25T05:20:54.423Z,95.41
2022-10-25T05:23:22.109Z,94.07
2022-10-25T05:25:50.986Z,94.98
2022-10-25T05:28:18.459Z,95.46
2022-10-25T05:30:45.918Z,94.60
2022-10-25T05:33:13.396Z,94.67
2022-10-25T05:35:40.847Z,95.48
2022-10-25T05:38:08.299Z,95.13
2022-10-25T05:40:35.776Z,95.14
2022-10-25T05:43:04.617Z,95.08
2022-10-25T05:45:32.084Z,95.28
2022-10-25T05:47:59.532Z,94.44
2022-10-25T05:50:27.039Z,94.00
2022-10-25T05:52:54.530Z,94.27
2022-10-25T05:55:21.986Z,94.50
2022-10-25T05:57:51.640Z,94.75
2022-10-25T06:00:20.527Z,94.99
2022-10-25T06:02:48.091Z,95.16
2022-10-25T06:05:15.926Z,95.26
2022-10-25T06:07:43.466Z,94.83
2022-10-25T06:10:11.056Z,95.35
2022-10-25T06:12:38.519Z,95.88
2022-10-25T06:15:07.211Z,95.85
2022-10-25T06:17:36.056Z,95.33
2022-10-25T06:20:03.660Z,96.12
2022-10-25T06:22:31.104Z,94.85
2022-10-25T06:24:58.597Z,95.95
2022-10-25T06:27:26.110Z,95.69
2022-10-25T06:29:53.572Z,94.64
2022-10-25T06:32:21.048Z,94.76
2022-10-25T06:34:49.885Z,94.65
2022-10-25T06:37:17.361Z,94.26
2022-10-25T06:39:44.822Z,95.07
2022-10-25T06:42:12.288Z,93.91
2022-10-25T06:44:39.822Z,94.50
2022-10-25T06:47:22.663Z,95.28
2022-10-25T06:49:51.572Z,95.23
2022-10-25T06:52:19.115Z,95.29
2022-10-25T06:54:46.797Z,95.07
2022-10-25T06:57:14.559Z,95.82
2022-10-25T06:59:42.106Z,95.99
2022-10-25T07:02:10.397Z,95.38
2022-10-25T07:04:38.067Z,95.85
2022-10-25T07:07:07.004Z,95.69
2022-10-25T07:09:34.558Z,95.10
2022-10-25T07:12:07.697Z,95.07
2022-10-25T07:14:39.153Z,94.69
2022-10-25T07:17:06.705Z,95.00
2022-10-25T07:19:34.374Z,95.45
2022-10-25T07:22:02.037Z,95.67
2022-10-25T07:24:31.250Z,95.44
2022-10-25T07:26:58.873Z,94.99
2022-10-25T07:29:26.457Z,95.43
2022-10-25T07:31:54.173Z,95.29
2022-10-25T07:34:21.827Z,93.94
2022-10-25T07:36:49.443Z,92.62
2022-10-25T07:39:17.060Z,92.44
2022-10-25T07:41:46.070Z,93.29
2022-10-25T07:44:17.418Z,94.00
2022-10-25T07:46:46.984Z,94.29
2022-10-25T07:49:14.850Z,94.58
2022-10-25T07:51:42.441Z,95.04
2022-10-25T07:54:09.923Z,94.86
2022-10-25T07:56:37.421Z,95.09
2022-10-25T07:59:06.214Z,94.73
2022-10-25T08:01:33.811Z,94.45
2022-10-25T08:04:01.385Z,94.23
2022-10-25T08:06:28.951Z,94.66
2022-10-25T08:08:56.384Z,94.88
2022-10-25T08:11:23.854Z,95.04
2022-10-25T08:13:51.436Z,94.80
2022-10-25T08:16:20.279Z,94.66
2022-10-25T08:18:47.895Z,94.49
2022-10-25T08:21:15.367Z,94.39
2022-10-25T08:23:42.796Z,94.55
2022-10-25T08:26:10.270Z,94.23
2022-10-25T08:28:37.740Z,94.35
2022-10-25T08:31:05.379Z,94.11
2022-10-25T08:33:34.356Z,94.00
2022-10-25T08:36:01.944Z,93.57
2022-10-25T08:38:29.691Z,93.15
2022-10-25T08:41:01.828Z,92.47
2022-10-25T08:43:47.085Z,92.34
2022-10-25T08:46:17.784Z,92.27
2022-10-25T08:48:49.989Z,92.16
2022-10-25T08:51:25.752Z,92.05
2022-10-25T08:53:55.973Z,92.34
2022-10-25T08:56:24.435Z,91.36
2022-10-25T08:58:55.568Z,92.00
2022-10-25T09:01:27.457Z,92.07
2022-10-25T09:03:56.420Z,91.40
2022-10-25T09:06:30.272Z,91.44
2022-10-25T09:09:05.841Z,91.20
2022-10-25T09:11:46.204Z,90.98
2022-10-25T09:14:20.132Z,90.43
2022-10-25T09:16:51.330Z,89.35
2022-10-25T09:19:26.843Z,89.38
2022-10-25T09:21:57.268Z,89.40
2022-10-25T09:24:30.267Z,88.44
2022-10-25T09:27:06.096Z,88.36
2022-10-25T09:29:36.799Z,88.14
2022-10-25T09:32:06.723Z,88.20
2022-10-25T09:34:36.470Z,87.01
2022-10-25T09:37:08.097Z,87.47
2022-10-25T09:39:38.472Z,87.37
2022-10-25T09:42:07.458Z,87.26
2022-10-25T09:44:38.071Z,87.78
2022-10-25T09:47:14.156Z,86.89
2022-10-25T09:49:50.335Z,86.77
2022-10-25T09:52:23.461Z,86.24
2022-10-25T09:54:54.310Z,86.15
2022-10-25T09:57:21.898Z,85.78
2022-10-25T09:59:51.287Z,85.26
2022-10-25T10:02:22.718Z,85.02
2022-10-25T10:04:51.932Z,84.74
2022-10-25T10:07:22.069Z,84.41
2022-10-25T10:09:50.508Z,85.05
2022-10-25T10:12:22.188Z,84.29
2022-10-25T10:14:56.076Z,84.29
2022-10-25T10:17:24.401Z,83.60
2022-10-25T10:20:15.113Z,82.33
2022-10-25T10:25:22.544Z,81.03
2022-10-25T10:27:52.113Z,82.33
2022-10-25T10:30:25.641Z,81.98
2022-10-25T10:32:58.059Z,81.05
2022-10-25T10:35:30.343Z,81.35
2022-10-25T10:38:23.530Z,81.63
2022-10-25T10:40:51.944Z,80.98
2022-10-25T10:43:30.077Z,80.03
2022-10-25T10:46:02.718Z,80.00
2022-10-25T10:48:36.713Z,80.14
2022-10-25T10:51:25.120Z,80.50
2022-10-25T10:53:56.644Z,80.80
2022-10-25T10:56:24.138Z,79.97
2022-10-25T10:58:53.590Z,79.54
2022-10-25T11:01:31.038Z,78.27
2022-10-25T11:04:00.796Z,78.92
2022-10-25T11:06:31.649Z,78.68
2022-10-25T11:09:13.206Z,77.92
2022-10-25T11:11:41.284Z,77.89
2022-10-25T11:14:12.734Z,77.02
2022-10-25T11:16:48.061Z,75.16
2022-10-25T11:19:26.734Z,75.61
2022-10-25T11:22:09.753Z,75.34
2022-10-25T11:24:42.207Z,74.83
2022-10-25T11:27:15.805Z,74.96
2022-10-25T11:30:01.855Z,74.67
2022-10-25T11:32:51.602Z,74.36
2022-10-25T11:35:32.884Z,73.30
2022-10-25T11:38:05.773Z,73.64
2022-10-25T11:40:37.968Z,73.13
2022-10-25T11:43:17.400Z,72.71
2022-10-25T11:45:46.815Z,74.27
2022-10-25T11:48:25.404Z,74.83
2022-10-25T11:50:59.105Z,73.80
2022-10-25T11:53:37.272Z,74.28
2022-10-25T11:56:08.701Z,72.74
2022-10-25T11:58:44.327Z,73.20
2022-10-25T12:01:22.371Z,74.34
2022-10-25T12:04:09.274Z,75.17
2022-10-25T12:06:43.096Z,73.80
2022-10-25T12:09:20.767Z,73.45
2022-10-25T12:11:50.254Z,74.14
2022-10-25T12:14:25.717Z,74.97
2022-10-25T12:16:53.359Z,75.66
2022-10-25T12:19:24.530Z,74.33
2022-10-25T12:21:56.709Z,74.49
2022-10-25T12:24:33.956Z,73.70
2022-10-25T12:27:01.523Z,73.82
2022-10-25T12:29:35.954Z,73.39
2022-10-25T12:32:06.424Z,72.70
2022-10-25T12:34:39.706Z,74.19
2022-10-25T12:37:11.180Z,72.27
2022-10-25T12:39:42.946Z,70.96
2022-10-25T12:42:15.789Z,71.42
2022-10-25T12:44:57.704Z,70.87
2022-10-25T12:47:32.798Z,71.66
2022-10-25T12:50:23.008Z,68.91
2022-10-25T12:53:11.323Z,69.81
2022-10-25T12:55:53.392Z,69.22
2022-10-25T12:58:33.709Z,70.12
2022-10-25T13:01:12.016Z,71.42
2022-10-25T13:03:50.309Z,71.48
2022-10-25T13:06:29.086Z,71.87
2022-10-25T13:09:02.432Z,71.75
2022-10-25T13:11:36.286Z,71.49
2022-10-25T13:14:04.606Z,71.15
2022-10-25T13:16:35.138Z,71.78
2022-10-25T13:19:42.686Z,71.01
2022-10-25T13:22:35.774Z,71.62
2022-10-25T13:25:07.131Z,70.63
2022-10-25T13:27:37.446Z,70.27
2022-10-25T13:30:24.262Z,69.76
2022-10-25T13:33:33.608Z,69.25
2022-10-25T13:36:05.765Z,68.91
2022-10-25T13:38:39.426Z,69.98
2022-10-25T13:41:12.406Z,70.25
2022-10-25T13:43:57.642Z,69.90
2022-10-25T13:46:27.652Z,71.03
2022-10-25T13:48:55.725Z,70.32
2022-10-25T13:51:23.336Z,71.12
2022-10-25T13:53:52.614Z,71.87
2022-10-25T13:56:35.691Z,71.29
2022-10-25T13:59:05.352Z,71.16
2022-10-25T14:02:02.638Z,70.84
2022-10-25T14:04:38.918Z,69.95
2022-10-25T14:07:43.975Z,69.38
2022-10-25T14:10:34.607Z,67.83
2022-10-25T14:13:09.788Z,69.54
2022-10-25T14:15:45.022Z,69.84
2022-10-25T14:18:18.261Z,70.36
2022-10-25T14:20:47.639Z,71.77
2022-10-25T14:23:17.423Z,71.63
2022-10-25T14:25:51.990Z,70.96
2022-10-25T14:28:23.255Z,71.65
2022-10-25T14:30:54.042Z,70.50
2022-10-25T14:33:24.337Z,71.38
2022-10-25T14:35:53.555Z,72.05
2022-10-25T14:38:22.977Z,71.85
2022-10-25T14:40:55.223Z,73.21
2022-10-25T14:43:25.695Z,73.64
2022-10-25T14:45:59.039Z,74.61
2022-10-25T14:48:26.945Z,72.60
2022-10-25T14:50:56.073Z,73.49
2022-10-25T14:53:23.948Z,73.65
2022-10-25T14:55:53.713Z,73.88
2022-10-25T14:58:21.720Z,73.90
2022-10-25T15:00:55.005Z,74.55
2022-10-25T15:03:24.091Z,73.92
2022-10-25T15:05:52.782Z,73.82
2022-10-25T15:08:22.946Z,73.92
2022-10-25T15:10:53.342Z,72.37
2022-10-25T15:13:27.235Z,73.47
2022-10-25T15:15:55.284Z,73.29
2022-10-25T15:18:32.639Z,73.24
2022-10-25T15:21:11.475Z,73.60
2022-10-25T15:23:40.733Z,73.50
2022-10-25T15:26:24.949Z,73.64
2022-10-25T15:28:54.321Z,73.97
2022-10-25T15:31:24.660Z,72.23
2022-10-25T15:34:04.667Z,72.40
2022-10-25T15:36:33.838Z,72.77
2022-10-25T15:39:10.408Z,73.49
2022-10-25T15:41:40.457Z,73.75
2022-10-25T15:44:08.114Z,74.19
2022-10-25T15:46:38.201Z,74.42
2022-10-25T15:49:08.501Z,73.93
2022-10-25T15:51:39.206Z,74.35
2022-10-25T15:54:07.165Z,75.54
2022-10-25T15:56:34.782Z,75.62
2022-10-25T15:59:02.471Z,75.66
2022-10-25T16:01:30.375Z,76.44
2022-10-25T16:03:58.086Z,76.82
2022-10-25T16:06:26.968Z,77.08
2022-10-25T16:08:54.708Z,77.47
2022-10-25T16:11:22.536Z,77.56
2022-10-25T16:13:52.178Z,77.88
2022-10-25T16:16:39.256Z,78.92
2022-10-25T16:19:07.822Z,79.12
2022-10-25T16:21:36.875Z,79.58
2022-10-25T16:24:04.741Z,80.06
2022-10-25T16:26:36.253Z,80.53
2022-10-25T16:29:04.248Z,80.59
2022-10-25T16:31:31.926Z,81.31
2022-10-25T16:33:59.545Z,81.08
2022-10-25T16:36:27.104Z,82.06
2022-10-25T16:38:56.056Z,82.88
2022-10-25T16:41:25.142Z,82.69
2022-10-25T16:43:53.489Z,82.40
2022-10-25T16:46:21.104Z,83.09
2022-10-25T16:48:49.305Z,83.51
2022-10-25T16:51:18.911Z,83.80
2022-10-25T16:53:47.620Z,83.36
2022-10-25T16:56:16.557Z,83.54
2022-10-25T16:58:44.117Z,84.45
2022-10-25T17:01:19.932Z,85.24
2022-10-25T17:03:50.693Z,85.36
2022-10-25T17:09:07.022Z,86.22
2022-10-25T17:11:36.175Z,86.34
2022-10-25T17:14:04.029Z,86.05
2022-10-25T17:16:31.840Z,86.72
2022-10-25T17:18:59.405Z,86.53
2022-10-25T17:21:28.346Z,86.85
2022-10-25T17:23:56.286Z,86.29
2022-10-25T17:26:23.875Z,86.65
2022-10-25T17:28:52.759Z,86.79
2022-10-25T17:31:20.405Z,86.69
2022-10-25T17:33:48.282Z,86.99
2022-10-25T17:36:17.457Z,86.84
2022-10-25T17:38:45.200Z,87.76
2022-10-25T17:41:13.542Z,88.13
2022-10-25T17:43:42.141Z,88.59
2022-10-25T17:46:17.658Z,88.00
2022-10-25T17:48:45.170Z,87.80
2022-10-25T17:51:14.779Z,88.07
2022-10-25T17:53:42.723Z,87.72
2022-10-25T17:56:13.597Z,87.90
2022-10-25T17:58:41.404Z,87.64
2022-10-25T18:01:10.806Z,88.29
2022-10-25T18:03:38.438Z,88.32
2022-10-25T18:06:08.232Z,88.45
2022-10-25T18:08:36.508Z,89.15
2022-10-25T18:11:09.284Z,89.38
2022-10-25T18:13:37.645Z,89.78
2022-10-25T18:18:40.734Z,90.43
2022-10-25T18:21:10.060Z,90.27
2022-10-25T18:23:38.190Z,89.99
2022-10-25T18:26:07.755Z,90.55
2022-10-25T18:28:35.929Z,90.29
2022-10-25T18:31:08.053Z,91.25
2022-10-25T18:33:38.071Z,91.72
2022-10-25T18:36:08.861Z,91.33
2022-10-25T18:38:36.580Z,91.36
2022-10-25T18:41:07.082Z,91.28
2022-10-25T18:43:34.837Z,91.68
2022-10-25T18:46:02.756Z,91.95
2022-10-25T18:48:30.756Z,92.06
2022-10-25T18:51:03.729Z,92.25
2022-10-25T18:53:35.351Z,92.42
2022-10-25T18:56:03.161Z,92.38
2022-10-25T18:58:31.741Z,92.29
2022-10-25T19:01:07.332Z,92.25
2022-10-25T19:03:35.144Z,93.15
2022-10-25T19:06:02.764Z,93.04
2022-10-25T19:08:31.908Z,93.24
2022-10-25T19:11:04.194Z,92.99
2022-10-25T19:13:33.590Z,93.13
2022-10-25T19:16:01.430Z,92.77
2022-10-25T19:18:30.477Z,92.66
2022-10-25T19:21:01.980Z,93.11
2022-10-25T19:23:29.796Z,92.55
2022-10-25T19:25:58.872Z,92.50
2022-10-25T19:28:26.509Z,92.85
2022-10-25T19:30:54.114Z,93.08
2022-10-25T19:33:21.723Z,93.13
2022-10-25T19:35:49.370Z,93.20
2022-10-25T19:38:17.064Z,93.79
2022-10-25T19:40:45.759Z,93.79
2022-10-25T19:43:15.903Z,94.51
2022-10-25T19:45:43.637Z,94.61
2022-10-25T19:48:11.256Z,94.48
2022-10-25T19:50:39.185Z,94.91
2022-10-25T19:53:06.972Z,94.83
2022-10-25T19:55:35.388Z,94.42
2022-10-25T19:58:04.216Z,94.85
2022-10-25T20:00:33.100Z,94.04
2022-10-25T20:03:01.095Z,94.68
2022-10-25T20:05:29.546Z,94.70
2022-10-25T20:07:57.194Z,94.17
2022-10-25T20:10:24.884Z,94.11
2022-10-25T20:12:52.500Z,94.24
2022-10-25T20:15:20.113Z,94.39
2022-10-25T20:17:49.315Z,93.72
2022-10-25T20:20:17.187Z,93.49
2022-10-25T20:22:44.762Z,93.72
2022-10-25T20:25:12.411Z,94.30
2022-10-25T20:27:39.948Z,94.44
2022-10-25T20:30:08.494Z,94.90
2022-10-25T20:32:36.009Z,95.51
2022-10-25T20:35:05.329Z,95.39
2022-10-25T20:37:32.874Z,95.26
2022-10-25T20:40:02.416Z,96.42
2022-10-25T20:42:30.019Z,95.95
2022-10-25T20:44:57.737Z,96.03
2022-10-25T20:47:25.475Z,95.98
2022-10-25T20:49:53.146Z,94.82
2022-10-25T20:52:22.117Z,95.61
2022-10-25T20:54:49.677Z,95.37
2022-10-25T20:57:17.273Z,94.94
2022-10-25T20:59:44.864Z,94.57
2022-10-25T21:02:12.664Z,94.56
2022-10-25T21:04:53.411Z,94.41
2022-10-25T21:07:22.834Z,94.86
2022-10-25T21:09:50.368Z,94.45
2022-10-25T21:12:17.916Z,95.35
2022-10-25T21:14:45.498Z,95.54
2022-10-25T21:17:13.056Z,94.82
2022-10-25T21:19:40.695Z,95.16
2022-10-25T21:22:08.341Z,95.36
2022-10-25T21:24:37.259Z,95.58
2022-10-25T21:27:04.854Z,96.15
2022-10-25T21:29:32.480Z,95.85
2022-10-25T21:32:00.085Z,95.95
2022-10-25T21:34:27.692Z,95.98
2022-10-25T21:36:55.284Z,95.91
2022-10-25T21:39:24.356Z,95.30
2022-10-25T21:41:53.829Z,95.76
2022-10-25T21:44:22.236Z,96.00
2022-10-25T21:46:49.902Z,95.89
2022-10-25T21:49:17.471Z,95.81
2022-10-25T21:51:45.048Z,96.27
2022-10-25T21:54:13.248Z,96.71
2022-10-25T21:56:40.831Z,96.34
2022-10-25T21:59:09.839Z,96.06
2022-10-25T22:01:37.505Z,96.03
2022-10-25T22:04:05.567Z,95.62
2022-10-25T22:06:33.104Z,96.40
2022-10-25T22:09:00.723Z,95.82
2022-10-25T22:11:30.027Z,96.83
2022-10-25T22:13:58.884Z,96.91
2022-10-25T22:16:28.830Z,96.67
2022-10-25T22:18:58.827Z,96.81
2022-10-25T22:21:27.726Z,96.44
2022-10-25T22:23:55.329Z,97.21
2022-10-25T22:26:23.348Z,96.95
2022-10-25T22:28:52.590Z,96.78
2022-10-25T22:31:20.729Z,96.91
2022-10-25T22:33:53.636Z,95.96
2022-10-25T22:36:22.227Z,95.64
2022-10-25T22:38:49.862Z,95.64
2022-10-25T22:41:18.693Z,95.59
2022-10-25T22:43:47.301Z,96.69
2022-10-25T22:46:16.499Z,96.56
2022-10-25T22:48:45.157Z,96.79
2022-10-25T22:51:14.060Z,96.70
2022-10-25T22:53:42.229Z,97.37
2022-10-25T22:56:12.409Z,97.39
2022-10-25T22:58:41.145Z,97.25
2022-10-25T23:01:10.486Z,97.76
2022-10-25T23:03:39.411Z,97.89
2022-10-25T23:06:08.812Z,97.72
2022-10-25T23:08:37.832Z,98.30
2022-10-25T23:11:07.376Z,97.67
2022-10-25T23:13:36.549Z,97.04
2022-10-25T23:16:04.937Z,96.58
2022-10-25T23:18:33.238Z,97.21
2022-10-25T23:21:02.396Z,97.07
2022-10-25T23:23:35.353Z,96.30
2022-10-25T23:26:04.540Z,95.34
2022-10-25T23:28:32.580Z,95.13
2022-10-25T23:31:05.066Z,94.02
2022-10-25T23:33:35.899Z,92.86
2022-10-25T23:36:04.296Z,92.22
2022-10-25T23:38:32.066Z,92.88
2022-10-25T23:40:59.620Z,93.02
2022-10-25T23:43:28.813Z,93.42
2022-10-25T23:45:56.364Z,94.05
2022-10-25T23:48:23.860Z,93.91
2022-10-25T23:50:56.360Z,93.74
2022-10-25T23:53:24.039Z,92.70
2022-10-25T23:55:51.573Z,92.87
2022-10-25T23:58:19.017Z,93.11
